sensor_id;sensor_type;location;lat;lon;timestamp;P1;durP1;ratioP1;P2;durP2;ratioP2
21352;SDS011;10834;52.268;6.770;2023-06-10T00:01:19;10.80;;;4.38;;
21352;SDS011;10834;52.268;6.770;2023-06-10T00:04:05;8.75;;;4.75;;
21352;SDS011;10834;52.268;6.770;2023-06-10T00:06:51;6.35;;;4.32;;
21352;SDS011;10834;52.268;6.770;2023-06-10T00:09:39;5.72;;;4.18;;
21352;SDS011;10834;52.268;6.770;2023-06-10T00:12:25;6.22;;;4.30;;
21352;SDS011;10834;52.268;6.770;2023-06-10T00:15:11;5.80;;;4.90;;
21352;SDS011;10834;52.268;6.770;2023-06-10T00:17:57;7.50;;;4.15;;
21352;SDS011;10834;52.268;6.770;2023-06-10T00:20:43;9.45;;;4.47;;
21352;SDS011;10834;52.268;6.770;2023-06-10T00:23:29;8.88;;;4.72;;
21352;SDS011;10834;52.268;6.770;2023-06-10T00:26:16;5.35;;;4.57;;
21352;SDS011;10834;52.268;6.770;2023-06-10T00:29:02;7.70;;;5.10;;
21352;SDS011;10834;52.268;6.770;2023-06-10T00:31:48;7.55;;;4.00;;
21352;SDS011;10834;52.268;6.770;2023-06-10T00:34:34;5.38;;;4.85;;
21352;SDS011;10834;52.268;6.770;2023-06-10T00:37:21;8.52;;;4.40;;
21352;SDS011;10834;52.268;6.770;2023-06-10T00:40:07;10.32;;;5.63;;
21352;SDS011;10834;52.268;6.770;2023-06-10T00:42:56;8.48;;;4.30;;
21352;SDS011;10834;52.268;6.770;2023-06-10T00:45:42;6.40;;;4.28;;
21352;SDS011;10834;52.268;6.770;2023-06-10T00:48:28;9.88;;;4.75;;
21352;SDS011;10834;52.268;6.770;2023-06-10T00:51:15;9.77;;;5.35;;
21352;SDS011;10834;52.268;6.770;2023-06-10T00:54:02;6.35;;;4.45;;
21352;SDS011;10834;52.268;6.770;2023-06-10T00:56:48;9.52;;;4.50;;
21352;SDS011;10834;52.268;6.770;2023-06-10T00:59:35;5.65;;;4.55;;
21352;SDS011;10834;52.268;6.770;2023-06-10T01:02:21;6.05;;;4.03;;
21352;SDS011;10834;52.268;6.770;2023-06-10T01:05:07;6.25;;;4.90;;
21352;SDS011;10834;52.268;6.770;2023-06-10T01:11:04;11.73;;;4.80;;
21352;SDS011;10834;52.268;6.770;2023-06-10T01:13:54;5.55;;;5.03;;
21352;SDS011;10834;52.268;6.770;2023-06-10T01:16:41;7.20;;;5.72;;
21352;SDS011;10834;52.268;6.770;2023-06-10T01:19:28;8.50;;;5.38;;
21352;SDS011;10834;52.268;6.770;2023-06-10T01:22:16;5.90;;;4.70;;
21352;SDS011;10834;52.268;6.770;2023-06-10T01:25:02;8.52;;;5.95;;
21352;SDS011;10834;52.268;6.770;2023-06-10T01:27:49;5.18;;;4.68;;
21352;SDS011;10834;52.268;6.770;2023-06-10T01:30:37;8.95;;;5.30;;
21352;SDS011;10834;52.268;6.770;2023-06-10T01:33:41;8.50;;;5.10;;
21352;SDS011;10834;52.268;6.770;2023-06-10T01:36:29;7.30;;;4.95;;
21352;SDS011;10834;52.268;6.770;2023-06-10T01:39:17;8.07;;;4.75;;
21352;SDS011;10834;52.268;6.770;2023-06-10T01:42:08;5.75;;;4.72;;
21352;SDS011;10834;52.268;6.770;2023-06-10T01:44:55;7.63;;;4.85;;
21352;SDS011;10834;52.268;6.770;2023-06-10T01:47:41;8.50;;;4.63;;
21352;SDS011;10834;52.268;6.770;2023-06-10T01:50:27;9.10;;;5.13;;
21352;SDS011;10834;52.268;6.770;2023-06-10T01:53:14;6.60;;;5.18;;
21352;SDS011;10834;52.268;6.770;2023-06-10T01:56:00;6.85;;;5.03;;
21352;SDS011;10834;52.268;6.770;2023-06-10T01:58:46;8.00;;;5.18;;
21352;SDS011;10834;52.268;6.770;2023-06-10T02:01:33;5.90;;;4.80;;
21352;SDS011;10834;52.268;6.770;2023-06-10T02:04:19;8.85;;;5.07;;
21352;SDS011;10834;52.268;6.770;2023-06-10T02:07:05;8.45;;;5.32;;
21352;SDS011;10834;52.268;6.770;2023-06-10T02:09:51;6.93;;;5.40;;
21352;SDS011;10834;52.268;6.770;2023-06-10T02:12:37;8.27;;;5.25;;
21352;SDS011;10834;52.268;6.770;2023-06-10T02:15:23;10.93;;;5.65;;
21352;SDS011;10834;52.268;6.770;2023-06-10T02:18:09;7.47;;;5.50;;
21352;SDS011;10834;52.268;6.770;2023-06-10T02:20:57;6.78;;;5.30;;
21352;SDS011;10834;52.268;6.770;2023-06-10T02:23:43;12.35;;;6.00;;
21352;SDS011;10834;52.268;6.770;2023-06-10T02:26:29;9.10;;;5.00;;
21352;SDS011;10834;52.268;6.770;2023-06-10T02:29:15;8.27;;;5.28;;
21352;SDS011;10834;52.268;6.770;2023-06-10T02:32:01;7.15;;;5.20;;
21352;SDS011;10834;52.268;6.770;2023-06-10T02:34:48;8.88;;;5.10;;
21352;SDS011;10834;52.268;6.770;2023-06-10T02:37:34;10.52;;;6.13;;
21352;SDS011;10834;52.268;6.770;2023-06-10T02:40:20;7.13;;;5.57;;
21352;SDS011;10834;52.268;6.770;2023-06-10T02:43:06;9.95;;;5.68;;
21352;SDS011;10834;52.268;6.770;2023-06-10T02:45:52;7.82;;;4.88;;
21352;SDS011;10834;52.268;6.770;2023-06-10T02:48:42;8.93;;;5.70;;
21352;SDS011;10834;52.268;6.770;2023-06-10T02:51:29;6.82;;;5.35;;
21352;SDS011;10834;52.268;6.770;2023-06-10T02:54:15;8.82;;;5.82;;
21352;SDS011;10834;52.268;6.770;2023-06-10T02:57:02;10.32;;;5.38;;
21352;SDS011;10834;52.268;6.770;2023-06-10T02:59:48;7.97;;;5.15;;
21352;SDS011;10834;52.268;6.770;2023-06-10T03:02:34;6.32;;;5.20;;
21352;SDS011;10834;52.268;6.770;2023-06-10T03:05:22;7.28;;;5.43;;
21352;SDS011;10834;52.268;6.770;2023-06-10T03:08:08;8.48;;;6.15;;
21352;SDS011;10834;52.268;6.770;2023-06-10T03:10:54;7.75;;;5.28;;
21352;SDS011;10834;52.268;6.770;2023-06-10T03:13:40;8.65;;;5.47;;
21352;SDS011;10834;52.268;6.770;2023-06-10T03:16:27;7.90;;;5.13;;
21352;SDS011;10834;52.268;6.770;2023-06-10T03:19:13;8.43;;;5.85;;
21352;SDS011;10834;52.268;6.770;2023-06-10T03:22:09;7.47;;;5.38;;
21352;SDS011;10834;52.268;6.770;2023-06-10T03:24:56;9.23;;;5.07;;
21352;SDS011;10834;52.268;6.770;2023-06-10T03:27:42;12.00;;;6.57;;
21352;SDS011;10834;52.268;6.770;2023-06-10T03:30:29;10.25;;;6.10;;
21352;SDS011;10834;52.268;6.770;2023-06-10T03:33:15;8.05;;;5.47;;
21352;SDS011;10834;52.268;6.770;2023-06-10T03:36:01;8.48;;;5.07;;
21352;SDS011;10834;52.268;6.770;2023-06-10T03:38:47;11.05;;;5.85;;
21352;SDS011;10834;52.268;6.770;2023-06-10T03:41:33;9.25;;;4.97;;
21352;SDS011;10834;52.268;6.770;2023-06-10T03:44:19;8.35;;;5.95;;
21352;SDS011;10834;52.268;6.770;2023-06-10T03:47:05;8.30;;;6.03;;
21352;SDS011;10834;52.268;6.770;2023-06-10T03:49:51;10.07;;;5.47;;
21352;SDS011;10834;52.268;6.770;2023-06-10T03:52:38;8.52;;;5.93;;
21352;SDS011;10834;52.268;6.770;2023-06-10T03:55:26;8.90;;;5.60;;
21352;SDS011;10834;52.268;6.770;2023-06-10T03:58:12;9.02;;;6.00;;
21352;SDS011;10834;52.268;6.770;2023-06-10T04:01:00;10.77;;;6.07;;
21352;SDS011;10834;52.268;6.770;2023-06-10T04:03:46;8.07;;;5.15;;
21352;SDS011;10834;52.268;6.770;2023-06-10T04:06:34;9.57;;;5.40;;
21352;SDS011;10834;52.268;6.770;2023-06-10T04:09:20;8.38;;;4.90;;
21352;SDS011;10834;52.268;6.770;2023-06-10T04:12:06;10.90;;;5.60;;
21352;SDS011;10834;52.268;6.770;2023-06-10T04:14:54;7.95;;;5.40;;
21352;SDS011;10834;52.268;6.770;2023-06-10T04:17:40;11.75;;;5.90;;
21352;SDS011;10834;52.268;6.770;2023-06-10T04:20:26;7.32;;;5.18;;
21352;SDS011;10834;52.268;6.770;2023-06-10T04:23:13;7.80;;;4.93;;
21352;SDS011;10834;52.268;6.770;2023-06-10T04:25:59;9.80;;;5.38;;
21352;SDS011;10834;52.268;6.770;2023-06-10T04:28:45;8.30;;;5.60;;
21352;SDS011;10834;52.268;6.770;2023-06-10T04:31:32;6.35;;;5.15;;
21352;SDS011;10834;52.268;6.770;2023-06-10T04:34:18;8.43;;;5.53;;
21352;SDS011;10834;52.268;6.770;2023-06-10T04:37:04;8.65;;;5.60;;
21352;SDS011;10834;52.268;6.770;2023-06-10T04:39:50;9.90;;;5.78;;
21352;SDS011;10834;52.268;6.770;2023-06-10T04:42:36;10.25;;;5.65;;
21352;SDS011;10834;52.268;6.770;2023-06-10T04:45:22;7.38;;;5.50;;
21352;SDS011;10834;52.268;6.770;2023-06-10T04:48:08;7.75;;;4.65;;
21352;SDS011;10834;52.268;6.770;2023-06-10T04:50:55;8.45;;;5.75;;
21352;SDS011;10834;52.268;6.770;2023-06-10T04:53:42;7.78;;;5.05;;
21352;SDS011;10834;52.268;6.770;2023-06-10T04:56:28;8.50;;;5.55;;
21352;SDS011;10834;52.268;6.770;2023-06-10T04:59:15;7.32;;;5.40;;
21352;SDS011;10834;52.268;6.770;2023-06-10T05:02:01;10.57;;;5.15;;
21352;SDS011;10834;52.268;6.770;2023-06-10T05:04:47;7.53;;;5.00;;
21352;SDS011;10834;52.268;6.770;2023-06-10T05:07:33;9.45;;;5.65;;
21352;SDS011;10834;52.268;6.770;2023-06-10T05:10:19;7.72;;;5.10;;
21352;SDS011;10834;52.268;6.770;2023-06-10T05:13:06;9.25;;;5.43;;
21352;SDS011;10834;52.268;6.770;2023-06-10T05:15:52;9.52;;;5.30;;
21352;SDS011;10834;52.268;6.770;2023-06-10T05:18:38;6.72;;;4.88;;
21352;SDS011;10834;52.268;6.770;2023-06-10T05:21:24;8.00;;;4.90;;
21352;SDS011;10834;52.268;6.770;2023-06-10T05:24:10;8.23;;;4.80;;
21352;SDS011;10834;52.268;6.770;2023-06-10T05:26:56;6.97;;;4.65;;
21352;SDS011;10834;52.268;6.770;2023-06-10T05:29:42;9.55;;;5.28;;
21352;SDS011;10834;52.268;6.770;2023-06-10T05:32:30;8.73;;;5.90;;
21352;SDS011;10834;52.268;6.770;2023-06-10T05:35:16;6.07;;;4.57;;
21352;SDS011;10834;52.268;6.770;2023-06-10T05:38:02;9.88;;;5.18;;
21352;SDS011;10834;52.268;6.770;2023-06-10T05:40:48;8.35;;;5.00;;
21352;SDS011;10834;52.268;6.770;2023-06-10T05:43:34;9.45;;;5.22;;
21352;SDS011;10834;52.268;6.770;2023-06-10T05:46:20;9.75;;;4.65;;
21352;SDS011;10834;52.268;6.770;2023-06-10T05:49:06;6.65;;;4.82;;
21352;SDS011;10834;52.268;6.770;2023-06-10T05:51:53;5.47;;;4.38;;
21352;SDS011;10834;52.268;6.770;2023-06-10T05:54:38;5.32;;;4.35;;
21352;SDS011;10834;52.268;6.770;2023-06-10T05:57:25;7.25;;;5.38;;
21352;SDS011;10834;52.268;6.770;2023-06-10T06:00:11;9.20;;;5.15;;
21352;SDS011;10834;52.268;6.770;2023-06-10T06:02:58;9.30;;;5.15;;
21352;SDS011;10834;52.268;6.770;2023-06-10T06:05:45;7.57;;;5.00;;
21352;SDS011;10834;52.268;6.770;2023-06-10T06:08:31;9.25;;;4.68;;
21352;SDS011;10834;52.268;6.770;2023-06-10T06:11:17;8.02;;;4.93;;
21352;SDS011;10834;52.268;6.770;2023-06-10T06:14:03;10.20;;;5.20;;
21352;SDS011;10834;52.268;6.770;2023-06-10T06:16:50;6.10;;;4.93;;
21352;SDS011;10834;52.268;6.770;2023-06-10T06:19:36;6.07;;;4.78;;
21352;SDS011;10834;52.268;6.770;2023-06-10T06:22:22;6.40;;;4.20;;
21352;SDS011;10834;52.268;6.770;2023-06-10T06:25:08;9.50;;;4.57;;
21352;SDS011;10834;52.268;6.770;2023-06-10T06:27:54;4.78;;;4.32;;
21352;SDS011;10834;52.268;6.770;2023-06-10T06:30:40;10.70;;;4.47;;
21352;SDS011;10834;52.268;6.770;2023-06-10T06:33:26;7.22;;;4.32;;
21352;SDS011;10834;52.268;6.770;2023-06-10T06:36:12;6.70;;;3.80;;
21352;SDS011;10834;52.268;6.770;2023-06-10T06:38:58;5.78;;;4.40;;
21352;SDS011;10834;52.268;6.770;2023-06-10T06:41:44;6.07;;;4.93;;
21352;SDS011;10834;52.268;6.770;2023-06-10T06:44:30;6.68;;;4.15;;
21352;SDS011;10834;52.268;6.770;2023-06-10T06:47:16;8.05;;;4.90;;
21352;SDS011;10834;52.268;6.770;2023-06-10T06:50:05;7.28;;;4.18;;
21352;SDS011;10834;52.268;6.770;2023-06-10T06:52:52;7.07;;;4.32;;
21352;SDS011;10834;52.268;6.770;2023-06-10T06:55:38;7.45;;;4.20;;
21352;SDS011;10834;52.268;6.770;2023-06-10T06:58:24;5.90;;;4.13;;
21352;SDS011;10834;52.268;6.770;2023-06-10T07:01:10;5.63;;;4.32;;
21352;SDS011;10834;52.268;6.770;2023-06-10T07:03:56;6.15;;;4.57;;
21352;SDS011;10834;52.268;6.770;2023-06-10T07:06:42;6.32;;;4.50;;
21352;SDS011;10834;52.268;6.770;2023-06-10T07:09:28;7.57;;;4.78;;
21352;SDS011;10834;52.268;6.770;2023-06-10T07:12:14;5.13;;;3.90;;
21352;SDS011;10834;52.268;6.770;2023-06-10T07:15:00;6.45;;;4.70;;
21352;SDS011;10834;52.268;6.770;2023-06-10T07:17:46;5.93;;;4.50;;
21352;SDS011;10834;52.268;6.770;2023-06-10T07:20:32;6.45;;;4.80;;
21352;SDS011;10834;52.268;6.770;2023-06-10T07:23:18;5.25;;;4.32;;
21352;SDS011;10834;52.268;6.770;2023-06-10T07:26:04;7.10;;;4.72;;
21352;SDS011;10834;52.268;6.770;2023-06-10T07:28:50;4.50;;;4.05;;
21352;SDS011;10834;52.268;6.770;2023-06-10T07:31:37;8.43;;;5.18;;
21352;SDS011;10834;52.268;6.770;2023-06-10T07:34:22;4.40;;;4.00;;
21352;SDS011;10834;52.268;6.770;2023-06-10T07:37:08;6.70;;;4.50;;
21352;SDS011;10834;52.268;6.770;2023-06-10T07:39:55;6.07;;;4.90;;
21352;SDS011;10834;52.268;6.770;2023-06-10T07:42:42;8.88;;;5.28;;
21352;SDS011;10834;52.268;6.770;2023-06-10T07:45:28;5.13;;;4.38;;
21352;SDS011;10834;52.268;6.770;2023-06-10T07:48:14;8.02;;;5.13;;
21352;SDS011;10834;52.268;6.770;2023-06-10T07:51:00;6.28;;;5.28;;
21352;SDS011;10834;52.268;6.770;2023-06-10T07:53:46;5.78;;;4.85;;
21352;SDS011;10834;52.268;6.770;2023-06-10T07:56:33;10.20;;;5.00;;
21352;SDS011;10834;52.268;6.770;2023-06-10T07:59:19;8.90;;;4.93;;
21352;SDS011;10834;52.268;6.770;2023-06-10T08:02:05;6.97;;;4.75;;
21352;SDS011;10834;52.268;6.770;2023-06-10T08:04:51;6.28;;;4.55;;
21352;SDS011;10834;52.268;6.770;2023-06-10T08:07:37;5.18;;;4.68;;
21352;SDS011;10834;52.268;6.770;2023-06-10T08:10:24;6.22;;;5.28;;
21352;SDS011;10834;52.268;6.770;2023-06-10T08:13:10;5.70;;;4.63;;
21352;SDS011;10834;52.268;6.770;2023-06-10T08:15:56;8.45;;;5.05;;
21352;SDS011;10834;52.268;6.770;2023-06-10T08:18:42;8.00;;;4.95;;
21352;SDS011;10834;52.268;6.770;2023-06-10T08:21:28;5.43;;;4.90;;
21352;SDS011;10834;52.268;6.770;2023-06-10T08:24:14;6.05;;;4.70;;
21352;SDS011;10834;52.268;6.770;2023-06-10T08:27:03;7.90;;;4.38;;
21352;SDS011;10834;52.268;6.770;2023-06-10T08:29:49;5.32;;;4.80;;
21352;SDS011;10834;52.268;6.770;2023-06-10T08:32:36;6.85;;;4.63;;
21352;SDS011;10834;52.268;6.770;2023-06-10T08:35:22;5.20;;;4.68;;
21352;SDS011;10834;52.268;6.770;2023-06-10T08:38:08;7.10;;;4.50;;
21352;SDS011;10834;52.268;6.770;2023-06-10T08:40:56;5.90;;;4.80;;
21352;SDS011;10834;52.268;6.770;2023-06-10T08:43:53;4.70;;;4.22;;
21352;SDS011;10834;52.268;6.770;2023-06-10T08:47:12;5.65;;;4.50;;
21352;SDS011;10834;52.268;6.770;2023-06-10T08:50:01;7.05;;;4.65;;
21352;SDS011;10834;52.268;6.770;2023-06-10T08:52:50;6.80;;;5.03;;
21352;SDS011;10834;52.268;6.770;2023-06-10T08:55:41;6.28;;;4.78;;
21352;SDS011;10834;52.268;6.770;2023-06-10T08:58:27;5.32;;;4.18;;
21352;SDS011;10834;52.268;6.770;2023-06-10T09:01:14;6.20;;;4.43;;
21352;SDS011;10834;52.268;6.770;2023-06-10T09:04:02;5.63;;;5.13;;
21352;SDS011;10834;52.268;6.770;2023-06-10T09:06:48;7.35;;;4.85;;
21352;SDS011;10834;52.268;6.770;2023-06-10T09:09:35;5.63;;;4.95;;
21352;SDS011;10834;52.268;6.770;2023-06-10T09:12:22;8.10;;;5.45;;
21352;SDS011;10834;52.268;6.770;2023-06-10T09:15:08;5.53;;;5.03;;
21352;SDS011;10834;52.268;6.770;2023-06-10T09:17:54;7.72;;;4.97;;
21352;SDS011;10834;52.268;6.770;2023-06-10T09:20:41;5.65;;;5.15;;
21352;SDS011;10834;52.268;6.770;2023-06-10T09:23:28;6.95;;;5.10;;
21352;SDS011;10834;52.268;6.770;2023-06-10T09:26:15;6.30;;;4.35;;
21352;SDS011;10834;52.268;6.770;2023-06-10T09:29:05;5.32;;;4.50;;
21352;SDS011;10834;52.268;6.770;2023-06-10T09:31:53;7.03;;;5.15;;
21352;SDS011;10834;52.268;6.770;2023-06-10T09:34:39;6.20;;;4.63;;
21352;SDS011;10834;52.268;6.770;2023-06-10T09:37:26;6.97;;;4.90;;
21352;SDS011;10834;52.268;6.770;2023-06-10T09:40:13;5.63;;;4.45;;
21352;SDS011;10834;52.268;6.770;2023-06-10T09:42:59;8.00;;;4.80;;
21352;SDS011;10834;52.268;6.770;2023-06-10T09:45:49;9.23;;;4.38;;
21352;SDS011;10834;52.268;6.770;2023-06-10T09:48:42;8.90;;;5.03;;
21352;SDS011;10834;52.268;6.770;2023-06-10T09:51:29;6.38;;;4.68;;
21352;SDS011;10834;52.268;6.770;2023-06-10T09:54:15;5.40;;;4.55;;
21352;SDS011;10834;52.268;6.770;2023-06-10T09:57:01;4.75;;;4.35;;
21352;SDS011;10834;52.268;6.770;2023-06-10T09:59:53;5.68;;;4.78;;
21352;SDS011;10834;52.268;6.770;2023-06-10T10:02:46;6.30;;;4.82;;
21352;SDS011;10834;52.268;6.770;2023-06-10T10:05:34;5.72;;;4.57;;
21352;SDS011;10834;52.268;6.770;2023-06-10T10:08:20;6.65;;;5.15;;
21352;SDS011;10834;52.268;6.770;2023-06-10T10:11:06;5.30;;;4.75;;
21352;SDS011;10834;52.268;6.770;2023-06-10T10:13:52;8.35;;;4.93;;
21352;SDS011;10834;52.268;6.770;2023-06-10T10:16:39;5.28;;;4.55;;
21352;SDS011;10834;52.268;6.770;2023-06-10T10:19:31;6.60;;;4.07;;
21352;SDS011;10834;52.268;6.770;2023-06-10T10:22:29;5.03;;;4.53;;
21352;SDS011;10834;52.268;6.770;2023-06-10T10:25:23;4.68;;;4.28;;
21352;SDS011;10834;52.268;6.770;2023-06-10T10:28:13;7.45;;;5.20;;
21352;SDS011;10834;52.268;6.770;2023-06-10T10:31:03;6.45;;;4.68;;
21352;SDS011;10834;52.268;6.770;2023-06-10T10:33:57;4.82;;;4.35;;
21352;SDS011;10834;52.268;6.770;2023-06-10T10:36:45;5.43;;;4.88;;
21352;SDS011;10834;52.268;6.770;2023-06-10T10:39:32;6.97;;;5.07;;
21352;SDS011;10834;52.268;6.770;2023-06-10T10:42:19;9.27;;;5.00;;
21352;SDS011;10834;52.268;6.770;2023-06-10T10:45:06;6.22;;;4.65;;
21352;SDS011;10834;52.268;6.770;2023-06-10T10:47:54;5.50;;;4.55;;
21352;SDS011;10834;52.268;6.770;2023-06-10T10:50:43;8.15;;;4.80;;
21352;SDS011;10834;52.268;6.770;2023-06-10T10:53:42;5.82;;;5.28;;
21352;SDS011;10834;52.268;6.770;2023-06-10T10:56:30;6.30;;;5.13;;
21352;SDS011;10834;52.268;6.770;2023-06-10T10:59:17;7.72;;;4.57;;
21352;SDS011;10834;52.268;6.770;2023-06-10T11:02:05;5.55;;;4.38;;
21352;SDS011;10834;52.268;6.770;2023-06-10T11:04:51;8.30;;;4.85;;
21352;SDS011;10834;52.268;6.770;2023-06-10T11:07:40;5.70;;;5.18;;
21352;SDS011;10834;52.268;6.770;2023-06-10T11:10:37;6.32;;;5.00;;
21352;SDS011;10834;52.268;6.770;2023-06-10T11:13:25;5.53;;;4.72;;
21352;SDS011;10834;52.268;6.770;2023-06-10T11:16:14;5.10;;;4.60;;
21352;SDS011;10834;52.268;6.770;2023-06-10T11:19:05;5.93;;;4.63;;
21352;SDS011;10834;52.268;6.770;2023-06-10T11:22:01;4.95;;;4.30;;
21352;SDS011;10834;52.268;6.770;2023-06-10T11:25:01;4.72;;;4.22;;
21352;SDS011;10834;52.268;6.770;2023-06-10T11:27:47;4.90;;;4.50;;
21352;SDS011;10834;52.268;6.770;2023-06-10T11:30:37;7.15;;;4.43;;
21352;SDS011;10834;52.268;6.770;2023-06-10T11:33:23;5.75;;;5.15;;
21352;SDS011;10834;52.268;6.770;2023-06-10T11:36:10;4.60;;;4.15;;
21352;SDS011;10834;52.268;6.770;2023-06-10T11:38:57;4.93;;;4.43;;
21352;SDS011;10834;52.268;6.770;2023-06-10T11:41:48;5.50;;;4.32;;
21352;SDS011;10834;52.268;6.770;2023-06-10T11:44:36;4.93;;;4.45;;
21352;SDS011;10834;52.268;6.770;2023-06-10T11:47:23;5.00;;;4.60;;
21352;SDS011;10834;52.268;6.770;2023-06-10T11:50:09;5.18;;;4.35;;
21352;SDS011;10834;52.268;6.770;2023-06-10T11:52:55;5.60;;;4.32;;
21352;SDS011;10834;52.268;6.770;2023-06-10T11:55:42;5.13;;;4.70;;
21352;SDS011;10834;52.268;6.770;2023-06-10T11:58:29;10.30;;;4.78;;
21352;SDS011;10834;52.268;6.770;2023-06-10T12:01:19;4.88;;;4.38;;
21352;SDS011;10834;52.268;6.770;2023-06-10T12:04:08;20.42;;;5.60;;
21352;SDS011;10834;52.268;6.770;2023-06-10T12:06:55;8.13;;;4.55;;
21352;SDS011;10834;52.268;6.770;2023-06-10T12:09:41;9.55;;;5.15;;
21352;SDS011;10834;52.268;6.770;2023-06-10T12:12:27;16.80;;;6.35;;
21352;SDS011;10834;52.268;6.770;2023-06-10T12:15:22;6.03;;;4.85;;
21352;SDS011;10834;52.268;6.770;2023-06-10T12:18:19;10.38;;;4.65;;
21352;SDS011;10834;52.268;6.770;2023-06-10T12:24:22;5.07;;;4.63;;
21352;SDS011;10834;52.268;6.770;2023-06-10T12:27:10;7.18;;;5.03;;
21352;SDS011;10834;52.268;6.770;2023-06-10T12:29:57;4.47;;;3.85;;
21352;SDS011;10834;52.268;6.770;2023-06-10T12:32:46;13.57;;;5.68;;
21352;SDS011;10834;52.268;6.770;2023-06-10T12:35:33;10.55;;;4.28;;
21352;SDS011;10834;52.268;6.770;2023-06-10T12:38:22;6.25;;;4.53;;
21352;SDS011;10834;52.268;6.770;2023-06-10T12:41:15;6.93;;;5.03;;
21352;SDS011;10834;52.268;6.770;2023-06-10T12:44:01;5.60;;;4.78;;
21352;SDS011;10834;52.268;6.770;2023-06-10T12:46:53;5.15;;;4.45;;
21352;SDS011;10834;52.268;6.770;2023-06-10T12:49:40;7.65;;;4.70;;
21352;SDS011;10834;52.268;6.770;2023-06-10T12:52:26;4.97;;;4.53;;
21352;SDS011;10834;52.268;6.770;2023-06-10T12:55:13;5.90;;;4.53;;
21352;SDS011;10834;52.268;6.770;2023-06-10T12:57:59;14.48;;;6.07;;
21352;SDS011;10834;52.268;6.770;2023-06-10T13:00:47;9.25;;;5.30;;
21352;SDS011;10834;52.268;6.770;2023-06-10T13:03:34;7.97;;;4.90;;
21352;SDS011;10834;52.268;6.770;2023-06-10T13:06:20;16.13;;;6.38;;
21352;SDS011;10834;52.268;6.770;2023-06-10T13:09:06;8.20;;;5.53;;
21352;SDS011;10834;52.268;6.770;2023-06-10T13:11:52;8.60;;;5.95;;
21352;SDS011;10834;52.268;6.770;2023-06-10T13:14:38;11.13;;;5.95;;
21352;SDS011;10834;52.268;6.770;2023-06-10T13:17:25;8.07;;;4.90;;
21352;SDS011;10834;52.268;6.770;2023-06-10T13:20:11;5.60;;;5.10;;
21352;SDS011;10834;52.268;6.770;2023-06-10T13:22:57;5.63;;;5.13;;
21352;SDS011;10834;52.268;6.770;2023-06-10T13:25:43;5.88;;;5.30;;
21352;SDS011;10834;52.268;6.770;2023-06-10T13:28:30;8.77;;;4.97;;
21352;SDS011;10834;52.268;6.770;2023-06-10T13:31:16;6.70;;;5.05;;
21352;SDS011;10834;52.268;6.770;2023-06-10T13:34:03;7.05;;;5.95;;
21352;SDS011;10834;52.268;6.770;2023-06-10T13:36:49;5.85;;;4.97;;
21352;SDS011;10834;52.268;6.770;2023-06-10T13:39:35;5.65;;;4.78;;
21352;SDS011;10834;52.268;6.770;2023-06-10T13:42:21;6.10;;;5.10;;
21352;SDS011;10834;52.268;6.770;2023-06-10T13:45:07;7.55;;;5.05;;
21352;SDS011;10834;52.268;6.770;2023-06-10T13:47:54;5.93;;;5.22;;
21352;SDS011;10834;52.268;6.770;2023-06-10T13:50:41;6.43;;;4.78;;
21352;SDS011;10834;52.268;6.770;2023-06-10T13:53:30;7.55;;;5.15;;
21352;SDS011;10834;52.268;6.770;2023-06-10T13:56:17;6.20;;;5.60;;
21352;SDS011;10834;52.268;6.770;2023-06-10T13:59:03;5.72;;;5.22;;
21352;SDS011;10834;52.268;6.770;2023-06-10T14:01:50;5.50;;;5.10;;
21352;SDS011;10834;52.268;6.770;2023-06-10T14:04:36;6.75;;;4.82;;
21352;SDS011;10834;52.268;6.770;2023-06-10T14:07:22;5.95;;;5.45;;
21352;SDS011;10834;52.268;6.770;2023-06-10T14:10:08;6.38;;;5.10;;
21352;SDS011;10834;52.268;6.770;2023-06-10T14:12:55;6.03;;;5.43;;
21352;SDS011;10834;52.268;6.770;2023-06-10T14:15:41;6.97;;;6.28;;
21352;SDS011;10834;52.268;6.770;2023-06-10T14:18:27;6.40;;;5.82;;
21352;SDS011;10834;52.268;6.770;2023-06-10T14:21:13;6.45;;;5.78;;
21352;SDS011;10834;52.268;6.770;2023-06-10T14:23:59;8.73;;;5.57;;
21352;SDS011;10834;52.268;6.770;2023-06-10T14:26:45;6.40;;;5.80;;
21352;SDS011;10834;52.268;6.770;2023-06-10T14:29:31;9.20;;;5.55;;
21352;SDS011;10834;52.268;6.770;2023-06-10T14:32:18;6.18;;;5.28;;
21352;SDS011;10834;52.268;6.770;2023-06-10T14:35:05;5.93;;;5.03;;
21352;SDS011;10834;52.268;6.770;2023-06-10T14:37:51;6.13;;;5.53;;
21352;SDS011;10834;52.268;6.770;2023-06-10T14:40:37;5.32;;;4.82;;
21352;SDS011;10834;52.268;6.770;2023-06-10T14:43:23;6.82;;;5.90;;
21352;SDS011;10834;52.268;6.770;2023-06-10T14:46:09;8.13;;;5.82;;
21352;SDS011;10834;52.268;6.770;2023-06-10T14:48:55;7.78;;;5.75;;
21352;SDS011;10834;52.268;6.770;2023-06-10T14:51:41;10.77;;;6.35;;
21352;SDS011;10834;52.268;6.770;2023-06-10T14:54:27;7.20;;;6.22;;
21352;SDS011;10834;52.268;6.770;2023-06-10T14:57:13;15.65;;;13.88;;
21352;SDS011;10834;52.268;6.770;2023-06-10T15:00:00;7.70;;;6.95;;
21352;SDS011;10834;52.268;6.770;2023-06-10T15:02:46;6.07;;;5.53;;
21352;SDS011;10834;52.268;6.770;2023-06-10T15:05:35;7.40;;;6.30;;
21352;SDS011;10834;52.268;6.770;2023-06-10T15:08:22;8.57;;;7.80;;
21352;SDS011;10834;52.268;6.770;2023-06-10T15:11:08;7.72;;;7.03;;
21352;SDS011;10834;52.268;6.770;2023-06-10T15:13:54;7.25;;;6.47;;
21352;SDS011;10834;52.268;6.770;2023-06-10T15:16:40;7.10;;;6.15;;
21352;SDS011;10834;52.268;6.770;2023-06-10T15:19:26;9.32;;;8.50;;
21352;SDS011;10834;52.268;6.770;2023-06-10T15:22:13;5.95;;;5.32;;
21352;SDS011;10834;52.268;6.770;2023-06-10T15:24:59;7.45;;;6.15;;
21352;SDS011;10834;52.268;6.770;2023-06-10T15:27:45;8.85;;;7.60;;
21352;SDS011;10834;52.268;6.770;2023-06-10T15:30:31;6.20;;;5.28;;
21352;SDS011;10834;52.268;6.770;2023-06-10T15:33:17;6.85;;;5.63;;
21352;SDS011;10834;52.268;6.770;2023-06-10T15:36:03;7.13;;;6.30;;
21352;SDS011;10834;52.268;6.770;2023-06-10T15:38:50;6.57;;;5.90;;
21352;SDS011;10834;52.268;6.770;2023-06-10T15:41:36;6.47;;;5.97;;
21352;SDS011;10834;52.268;6.770;2023-06-10T15:44:22;9.10;;;6.03;;
21352;SDS011;10834;52.268;6.770;2023-06-10T15:47:09;8.48;;;6.40;;
21352;SDS011;10834;52.268;6.770;2023-06-10T15:49:55;6.25;;;5.47;;
21352;SDS011;10834;52.268;6.770;2023-06-10T15:52:40;6.95;;;6.25;;
21352;SDS011;10834;52.268;6.770;2023-06-10T15:55:26;6.50;;;5.70;;
21352;SDS011;10834;52.268;6.770;2023-06-10T15:58:14;7.82;;;5.97;;
21352;SDS011;10834;52.268;6.770;2023-06-10T16:01:00;7.53;;;6.05;;
21352;SDS011;10834;52.268;6.770;2023-06-10T16:03:46;6.05;;;5.43;;
21352;SDS011;10834;52.268;6.770;2023-06-10T16:06:32;6.63;;;6.00;;
21352;SDS011;10834;52.268;6.770;2023-06-10T16:09:19;8.55;;;6.30;;
21352;SDS011;10834;52.268;6.770;2023-06-10T16:12:06;7.13;;;6.43;;
21352;SDS011;10834;52.268;6.770;2023-06-10T16:14:52;6.10;;;5.47;;
21352;SDS011;10834;52.268;6.770;2023-06-10T16:17:38;6.88;;;6.28;;
21352;SDS011;10834;52.268;6.770;2023-06-10T16:20:24;8.25;;;5.95;;
21352;SDS011;10834;52.268;6.770;2023-06-10T16:23:11;11.48;;;10.40;;
21352;SDS011;10834;52.268;6.770;2023-06-10T16:25:57;13.18;;;11.90;;
21352;SDS011;10834;52.268;6.770;2023-06-10T16:28:43;14.73;;;13.32;;
21352;SDS011;10834;52.268;6.770;2023-06-10T16:31:29;9.40;;;8.32;;
21352;SDS011;10834;52.268;6.770;2023-06-10T16:34:15;7.05;;;6.28;;
21352;SDS011;10834;52.268;6.770;2023-06-10T16:37:02;8.20;;;6.10;;
21352;SDS011;10834;52.268;6.770;2023-06-10T16:39:48;6.40;;;5.70;;
21352;SDS011;10834;52.268;6.770;2023-06-10T16:42:34;6.45;;;5.85;;
21352;SDS011;10834;52.268;6.770;2023-06-10T16:45:20;6.68;;;6.00;;
21352;SDS011;10834;52.268;6.770;2023-06-10T16:48:06;7.25;;;6.03;;
21352;SDS011;10834;52.268;6.770;2023-06-10T16:50:52;7.97;;;7.03;;